Lens, Belgium
Current Conditions -  °F | °C
As of 9:25 AM on Monday 22 Dec 2014 (Local Time) from EBCV Reporting Station
Overcast Overcast  
Wind Chill: 39°   Ceiling: 1200
Heat Index: 46°   Visibility: 6mi
Dew Point: 43°   Wind: 22mph
Humidity: 87%   Direction: 220°SW
Pressure: 30.24"   Gusts: NA
Location:  50.56°N, 3.9°E
Report Text: EBCV 220825Z AUTO 22019KT 9999 BKN012/// OVC015/// 08/06 Q1024 GRN
Loading
Personal Weather Stations






























Interactive Weather Map New forecast layout! Learn more

10-Day Weather Forecast

Advertisements
Track Severe Weather on mobile